Time;durP1;ratioP1;P1;durP2;ratioP2;P2;SDS_P1;SDS_P2;PMS_P1;PMS_P2;Temp;Humidity;BMP_temperature;BMP_pressure;BME280_temperature;BME280_humidity;BME280_pressure;Samples;Min_cycle;Max_cycle;Signal;HPM_P1;HPM_P2
2023/05/06 00:01:52;;;;;;;3.40;1.60;;;;;;;6.78;100.00;99845.73;109548;1251;74075;-67
2023/05/06 00:04:19;;;;;;;2.60;1.50;;;;;;;6.75;100.00;99848.30;109504;1251;69165;-68
2023/05/06 00:06:46;;;;;;;2.70;1.30;;;;;;;6.73;100.00;99846.02;109412;1251;74925;-68
2023/05/06 00:09:12;;;;;;;2.20;1.40;;;;;;;6.71;100.00;99846.02;109473;1251;62294;-68
2023/05/06 00:11:39;;;;;;;2.00;1.80;;;;;;;6.69;100.00;99845.18;109517;1258;62049;-67
2023/05/06 00:14:06;;;;;;;1.60;1.40;;;;;;;6.67;100.00;99843.20;109583;1251;73766;-69
2023/05/06 00:16:32;;;;;;;2.40;1.60;;;;;;;6.68;100.00;99840.85;109565;1251;68185;-68
2023/05/06 00:18:59;;;;;;;2.40;1.40;;;;;;;6.68;100.00;99837.33;109570;1251;73382;-67
2023/05/06 00:21:26;;;;;;;1.70;1.60;;;;;;;6.68;100.00;99835.73;109488;1254;63321;-68
2023/05/06 00:23:53;;;;;;;1.70;1.40;;;;;;;6.68;100.00;99841.52;109491;1251;59248;-68
2023/05/06 00:26:19;;;;;;;2.20;1.30;;;;;;;6.70;100.00;99844.41;109599;1251;74778;-69
2023/05/06 00:28:46;;;;;;;2.80;1.30;;;;;;;6.71;100.00;99841.45;109646;1251;70370;-68
2023/05/06 00:31:13;;;;;;;2.40;1.60;;;;;;;6.72;100.00;99848.21;109367;1251;71368;-69
2023/05/06 00:33:40;;;;;;;1.70;1.50;;;;;;;6.71;100.00;99851.84;109544;1254;62538;-68
2023/05/06 00:36:07;;;;;;;1.50;1.40;;;;;;;6.68;100.00;99851.91;109588;1251;61598;-67
2023/05/06 00:38:34;;;;;;;2.00;1.60;;;;;;;6.67;100.00;99853.33;109603;1251;74646;-67
2023/05/06 00:41:02;;;;;;;4.00;1.70;;;;;;;6.63;100.00;99855.27;109473;1257;68242;-67
2023/05/06 00:43:29;;;;;;;2.40;1.90;;;;;;;6.58;100.00;99858.12;109398;1251;74655;-68
2023/05/06 00:45:56;;;;;;;2.20;1.40;;;;;;;6.57;100.00;99855.98;109482;1251;62455;-67
2023/05/06 00:48:23;;;;;;;1.50;1.40;;;;;;;6.54;100.00;99854.14;109486;1251;60886;-67
2023/05/06 00:50:50;;;;;;;2.80;1.50;;;;;;;6.52;100.00;99857.98;109375;1259;76305;-66
2023/05/06 00:53:18;;;;;;;2.00;1.60;;;;;;;6.51;100.00;99858.61;109583;1251;70399;-66
2023/05/06 00:55:45;;;;;;;2.10;1.70;;;;;;;6.50;100.00;99860.83;109376;1251;74036;-67
2023/05/06 00:58:11;;;;;;;2.10;1.30;;;;;;;6.46;100.00;99858.38;109511;1251;63958;-67
2023/05/06 01:00:39;;;;;;;2.60;1.60;;;;;;;6.40;100.00;99862.61;109387;1258;61677;-67
2023/05/06 01:03:05;;;;;;;2.00;1.40;;;;;;;6.34;100.00;99865.41;109583;1251;75924;-67
2023/05/06 01:05:38;;;;;;;1.60;1.50;;;;;;;6.32;100.00;99866.96;109585;1251;68753;-67
2023/05/06 01:08:11;;;;;;;2.40;1.70;;;;;;;6.32;100.00;99867.54;109502;1254;73512;-67
2023/05/06 01:10:45;;;;;;;2.20;1.40;;;;;;;6.30;100.00;99868.73;109551;1254;62862;-67
2023/05/06 01:13:31;;;;;;;2.00;1.60;;;;;;;6.27;100.00;99868.86;109423;1251;62098;-67
2023/05/06 01:15:58;;;;;;;1.40;1.30;;;;;;;6.22;100.00;99865.39;109474;1251;74598;-67
2023/05/06 01:18:25;;;;;;;2.80;1.50;;;;;;;6.17;100.00;99869.36;109460;1251;68485;-66
2023/05/06 01:20:53;;;;;;;1.60;1.50;;;;;;;6.13;100.00;99871.28;109507;1251;73495;-67
2023/05/06 01:23:20;;;;;;;3.10;1.60;;;;;;;6.10;100.00;99871.05;109502;1251;64213;-66
2023/05/06 01:25:47;;;;;;;1.70;1.50;;;;;;;6.08;100.00;99878.08;109597;1251;61659;-67
2023/05/06 01:28:15;;;;;;;2.30;1.40;;;;;;;6.04;100.00;99878.24;109581;1251;75003;-67
2023/05/06 01:30:48;;;;;;;2.40;1.80;;;;;;;6.00;100.00;99878.25;109575;1251;69850;-66
2023/05/06 01:33:21;;;;;;;1.80;1.40;;;;;;;5.94;100.00;99873.11;109441;1254;73417;-66
2023/05/06 01:36:03;;;;;;;1.70;1.40;;;;;;;5.88;100.00;99875.38;109526;1251;59627;-67
2023/05/06 01:38:35;;;;;;;1.50;1.40;;;;;;;5.83;100.00;99877.58;109560;1251;59126;-67
2023/05/06 01:41:02;;;;;;;2.60;1.30;;;;;;;5.79;100.00;99875.66;109472;1251;76384;-67
2023/05/06 01:43:33;;;;;;;1.30;1.20;;;;;;;5.74;100.00;99868.66;109322;1254;70524;-68
2023/05/06 01:46:01;;;;;;;2.30;1.80;;;;;;;5.71;100.00;99873.52;109498;1253;73138;-67
2023/05/06 01:48:30;;;;;;;1.60;1.50;;;;;;;5.67;100.00;99875.44;109155;1251;61421;-66
2023/05/06 01:50:57;;;;;;;2.60;1.40;;;;;;;5.64;100.00;99880.60;109567;1253;61393;-67
2023/05/06 01:53:24;;;;;;;2.40;1.60;;;;;;;5.61;100.00;99886.50;109254;1251;73398;-68
2023/05/06 01:55:51;;;;;;;2.40;1.60;;;;;;;5.57;100.00;99883.47;109553;1251;69851;-67
2023/05/06 01:58:18;;;;;;;3.10;1.60;;;;;;;5.54;100.00;99888.17;109423;1251;74291;-68
2023/05/06 02:00:45;;;;;;;3.00;1.40;;;;;;;5.51;100.00;99892.63;109543;1251;62632;-68
2023/05/06 02:03:12;;;;;;;1.60;1.40;;;;;;;5.50;100.00;99898.21;109595;1251;61028;-67
2023/05/06 02:05:39;;;;;;;1.40;1.30;;;;;;;5.49;100.00;99899.28;109374;1251;75150;-68
2023/05/06 02:08:06;;;;;;;1.40;1.30;;;;;;;5.50;100.00;99896.40;109556;1251;67265;-68
2023/05/06 02:10:33;;;;;;;1.40;1.10;;;;;;;5.51;100.00;99897.58;109485;1251;74937;-68
2023/05/06 02:13:03;;;;;;;1.50;1.30;;;;;;;5.50;100.00;99899.90;109540;1251;61093;-67
2023/05/06 02:15:30;;;;;;;1.50;1.30;;;;;;;5.50;100.00;99901.31;109496;1251;60490;-67
2023/05/06 02:17:58;;;;;;;3.10;1.60;;;;;;;5.50;100.00;99903.81;109400;1251;74541;-68
2023/05/06 02:20:25;;;;;;;1.40;1.30;;;;;;;5.49;100.00;99902.45;109446;1251;67764;-68
2023/05/06 02:22:52;;;;;;;3.40;1.40;;;;;;;5.49;100.00;99901.76;109513;1251;74603;-66
2023/05/06 02:25:19;;;;;;;2.60;1.40;;;;;;;5.49;100.00;99902.29;109541;1251;63856;-67
2023/05/06 02:27:46;;;;;;;4.00;1.80;;;;;;;5.49;100.00;99904.42;109545;1251;61888;-68
2023/05/06 02:30:13;;;;;;;1.60;1.50;;;;;;;5.50;100.00;99901.67;109564;1251;75785;-68
2023/05/06 02:32:40;;;;;;;1.70;1.30;;;;;;;5.51;100.00;99900.56;109552;1251;68995;-67
2023/05/06 02:35:07;;;;;;;2.90;1.60;;;;;;;5.51;100.00;99905.10;109550;1251;72288;-67
2023/05/06 02:37:34;;;;;;;1.60;1.50;;;;;;;5.51;100.00;99911.63;109239;1256;63117;-68
2023/05/06 02:40:01;;;;;;;1.50;1.30;;;;;;;5.51;100.00;99916.23;109520;1251;61209;-67
2023/05/06 02:42:29;;;;;;;1.50;1.30;;;;;;;5.50;100.00;99921.18;109576;1251;73661;-68
2023/05/06 02:44:56;;;;;;;2.40;1.30;;;;;;;5.48;100.00;99917.89;109606;1251;69980;-68
2023/05/06 02:47:23;;;;;;;1.80;1.60;;;;;;;5.44;100.00;99919.96;109373;1251;73837;-67
2023/05/06 02:49:50;;;;;;;2.10;1.60;;;;;;;5.42;100.00;99930.36;109561;1251;63944;-67
2023/05/06 02:52:17;;;;;;;1.50;1.30;;;;;;;5.41;100.00;99927.96;109382;1251;59440;-68
2023/05/06 02:54:44;;;;;;;1.90;1.40;;;;;;;5.42;100.00;99927.84;109557;1251;74402;-68
2023/05/06 02:57:11;;;;;;;2.20;1.30;;;;;;;5.42;100.00;99930.50;109594;1251;69350;-68
2023/05/06 02:59:37;;;;;;;1.90;1.30;;;;;;;5.41;100.00;99928.11;109530;1251;73861;-68
2023/05/06 03:02:04;;;;;;;1.70;1.30;;;;;;;5.41;100.00;99930.41;109585;1254;62357;-67
2023/05/06 03:04:31;;;;;;;2.20;1.50;;;;;;;5.42;100.00;99929.68;109542;1251;61214;-68
2023/05/06 03:06:58;;;;;;;2.60;1.30;;;;;;;5.42;100.00;99934.34;109543;1251;75779;-67
2023/05/06 03:09:25;;;;;;;1.40;1.30;;;;;;;5.45;100.00;99945.05;109606;1251;67970;-67
2023/05/06 03:11:52;;;;;;;1.70;1.30;;;;;;;5.47;100.00;99944.48;109594;1251;74840;-66
2023/05/06 03:14:20;;;;;;;2.20;1.60;;;;;;;5.50;100.00;99945.30;109347;1257;64188;-68
2023/05/06 03:16:47;;;;;;;1.40;1.30;;;;;;;5.54;100.00;99944.62;109409;1251;61195;-68
2023/05/06 03:19:14;;;;;;;2.60;1.40;;;;;;;5.59;100.00;99949.62;109542;1251;74473;-67
2023/05/06 03:21:42;;;;;;;2.40;1.30;;;;;;;5.68;100.00;99956.98;109599;1252;70014;-67
2023/05/06 03:24:10;;;;;;;1.40;1.10;;;;;;;5.77;100.00;99957.88;109510;1251;74420;-66
2023/05/06 03:26:37;;;;;;;3.30;1.50;;;;;;;5.79;100.00;99952.77;109448;1251;59246;-67
2023/05/06 03:29:04;;;;;;;1.90;1.40;;;;;;;5.78;100.00;99959.13;109419;1251;62271;-67
2023/05/06 03:31:31;;;;;;;1.90;1.20;;;;;;;5.77;100.00;99963.60;109543;1251;75564;-67
2023/05/06 03:33:58;;;;;;;1.80;1.20;;;;;;;5.75;100.00;99967.31;109577;1253;68877;-68
2023/05/06 03:36:26;;;;;;;1.40;1.30;;;;;;;5.74;100.00;99965.64;109535;1254;73458;-67
2023/05/06 03:38:54;;;;;;;1.60;1.40;;;;;;;5.76;100.00;99965.66;109417;1254;62467;-68
2023/05/06 03:41:21;;;;;;;1.60;1.30;;;;;;;5.76;100.00;99963.32;109423;1252;62128;-68
2023/05/06 03:43:48;;;;;;;1.80;1.40;;;;;;;5.76;100.00;99964.46;109556;1251;75856;-68
2023/05/06 03:46:16;;;;;;;2.20;1.40;;;;;;;5.76;100.00;99969.65;109386;1254;70075;-68
2023/05/06 03:48:43;;;;;;;2.70;1.30;;;;;;;5.77;100.00;99963.41;109353;1251;73239;-68
2023/05/06 03:51:12;;;;;;;1.30;1.20;;;;;;;5.79;100.00;99967.29;109417;1251;61594;-68
2023/05/06 03:53:39;;;;;;;1.50;1.40;;;;;;;5.81;100.00;99966.31;109418;1251;59003;-67
2023/05/06 03:56:06;;;;;;;1.90;1.60;;;;;;;5.83;100.00;99964.16;109538;1251;76005;-68
2023/05/06 03:58:34;;;;;;;1.70;1.50;;;;;;;5.86;100.00;99962.20;109655;1251;66995;-67
2023/05/06 04:01:01;;;;;;;1.60;1.50;;;;;;;5.91;100.00;99961.91;109475;1254;73995;-68
2023/05/06 04:03:28;;;;;;;1.30;1.20;;;;;;;6.09;100.00;99964.23;109577;1251;61877;-68
2023/05/06 04:05:55;;;;;;;2.00;1.50;;;;;;;6.42;100.00;99967.08;109464;1251;60198;-67
2023/05/06 04:08:24;;;;;;;1.50;1.40;;;;;;;6.86;100.00;99968.84;109602;1251;74276;-68
2023/05/06 04:10:51;;;;;;;3.00;1.20;;;;;;;7.38;100.00;99963.73;109397;1251;69302;-67
2023/05/06 04:13:25;;;;;;;2.80;1.30;;;;;;;7.92;100.00;99961.22;109361;1256;72609;-68
2023/05/06 04:15:52;;;;;;;1.70;1.40;;;;;;;8.41;100.00;99958.58;109553;1251;61474;-68
2023/05/06 04:18:21;;;;;;;1.30;1.10;;;;;;;8.86;100.00;99961.10;109441;1254;62327;-68
2023/05/06 04:20:55;;;;;;;1.10;1.00;;;;;;;9.19;100.00;99961.38;109370;1251;75617;-67
2023/05/06 04:23:22;;;;;;;1.30;1.00;;;;;;;9.37;100.00;99963.56;109395;1251;70738;-67
2023/05/06 04:25:49;;;;;;;1.30;1.20;;;;;;;9.47;100.00;99967.30;109464;1251;73662;-68
2023/05/06 04:28:17;;;;;;;2.20;1.20;;;;;;;9.55;100.00;99966.17;109444;1251;62305;-67
2023/05/06 04:30:47;;;;;;;1.20;1.10;;;;;;;9.67;100.00;99966.83;109396;1251;62670;-67
2023/05/06 04:33:14;;;;;;;1.30;1.10;;;;;;;9.84;100.00;99965.17;109572;1251;73763;-68
2023/05/06 04:35:52;;;;;;;2.80;1.70;;;;;;;9.95;100.00;99966.73;109472;1251;68715;-66
2023/05/06 04:38:20;;;;;;;1.70;1.20;;;;;;;9.96;100.00;99959.73;109265;1251;71427;-66
2023/05/06 04:40:48;;;;;;;1.10;1.00;;;;;;;9.91;100.00;99961.25;109571;1251;61435;-68
2023/05/06 04:43:16;;;;;;;2.10;1.20;;;;;;;9.77;100.00;99958.42;109443;1251;61655;-67
2023/05/06 04:45:48;;;;;;;2.30;1.20;;;;;;;9.67;100.00;99959.29;109385;1251;75450;-67
2023/05/06 04:48:18;;;;;;;2.70;1.30;;;;;;;9.52;100.00;99958.29;109445;1251;68499;-68
2023/05/06 04:50:45;;;;;;;1.50;1.00;;;;;;;9.33;100.00;99965.50;109377;1251;72295;-68
2023/05/06 04:53:12;;;;;;;3.30;1.50;;;;;;;9.10;100.00;99970.58;109583;1252;61543;-69
2023/05/06 04:55:40;;;;;;;1.30;1.20;;;;;;;8.95;100.00;99966.77;109462;1251;61101;-68
2023/05/06 04:58:07;;;;;;;3.80;1.30;;;;;;;8.91;100.00;99975.48;109568;1251;76235;-67
2023/05/06 05:00:34;;;;;;;1.50;1.00;;;;;;;8.91;100.00;99972.67;109519;1251;68201;-67
2023/05/06 05:03:02;;;;;;;1.90;1.30;;;;;;;8.87;100.00;99973.91;109401;1251;74754;-68
2023/05/06 05:05:32;;;;;;;1.70;1.60;;;;;;;8.79;100.00;99971.89;109565;1253;62047;-67
2023/05/06 05:08:01;;;;;;;1.20;1.00;;;;;;;8.71;100.00;99974.77;109506;1251;60341;-68
2023/05/06 05:10:28;;;;;;;2.40;1.00;;;;;;;8.53;100.00;99974.67;109607;1251;74919;-68
2023/05/06 05:12:55;;;;;;;2.40;1.20;;;;;;;8.39;100.00;99976.10;109511;1251;70268;-68
2023/05/06 05:15:22;;;;;;;1.30;1.00;;;;;;;8.27;100.00;99974.39;109470;1251;73866;-68
2023/05/06 05:17:49;;;;;;;3.20;1.20;;;;;;;8.15;100.00;99970.75;109586;1251;61542;-68
2023/05/06 05:20:17;;;;;;;6.80;1.30;;;;;;;8.04;100.00;99970.29;109492;1251;60427;-68
2023/05/06 05:22:44;;;;;;;2.80;0.90;;;;;;;8.00;100.00;99969.88;109506;1251;75417;-68
2023/05/06 05:25:11;;;;;;;14.50;2.30;;;;;;;7.98;100.00;99967.54;109584;1251;68887;-67
2023/05/06 05:27:41;;;;;;;2.10;1.10;;;;;;;8.00;100.00;99963.88;109456;1251;73488;-67
2023/05/06 05:30:08;;;;;;;1.40;1.30;;;;;;;8.04;100.00;99972.29;109479;1253;61572;-68
2023/05/06 05:32:37;;;;;;;1.50;1.10;;;;;;;8.09;100.00;99972.02;109259;1251;62340;-67
2023/05/06 05:35:04;;;;;;;1.60;1.50;;;;;;;8.15;100.00;99970.95;109373;1251;76782;-66
2023/05/06 05:37:32;;;;;;;2.30;1.30;;;;;;;8.19;100.00;99970.01;109497;1251;69076;-66
2023/05/06 05:39:59;;;;;;;1.60;1.20;;;;;;;8.28;100.00;99976.09;109514;1251;74578;-67
2023/05/06 05:42:26;;;;;;;1.90;1.30;;;;;;;8.46;100.00;99974.41;109400;1251;58903;-67
2023/05/06 05:44:54;;;;;;;1.30;1.10;;;;;;;8.64;100.00;99974.36;109578;1251;62631;-67
2023/05/06 05:47:22;;;;;;;4.00;1.20;;;;;;;8.86;100.00;99970.68;109593;1251;76162;-66
2023/05/06 05:49:49;;;;;;;1.30;1.10;;;;;;;9.36;100.00;99974.02;109621;1251;66492;-67
2023/05/06 05:52:17;;;;;;;1.00;0.80;;;;;;;9.86;100.00;99972.50;109424;1251;74121;-68
2023/05/06 05:54:43;;;;;;;1.40;1.20;;;;;;;10.27;100.00;99978.85;109451;1251;61822;-68
2023/05/06 05:57:10;;;;;;;6.40;1.20;;;;;;;10.74;100.00;99977.36;109643;1251;59531;-68
2023/05/06 05:59:38;;;;;;;2.60;1.60;;;;;;;11.31;99.51;99976.56;109236;1251;77247;-68
2023/05/06 06:02:05;;;;;;;1.70;1.10;;;;;;;11.67;95.62;99973.18;109560;1253;69153;-68
2023/05/06 06:04:32;;;;;;;1.70;1.10;;;;;;;11.98;92.10;99975.33;109510;1251;74495;-68
2023/05/06 06:07:00;;;;;;;2.90;1.40;;;;;;;12.03;91.01;99977.13;109392;1251;60873;-68
2023/05/06 06:09:27;;;;;;;3.70;1.10;;;;;;;11.89;89.80;99985.96;109247;1251;62365;-68
2023/05/06 06:11:54;;;;;;;1.20;1.10;;;;;;;11.66;87.16;99980.23;109457;1253;76726;-68
2023/05/06 06:14:23;;;;;;;5.70;1.30;;;;;;;11.42;84.42;99981.58;109386;1251;68640;-69
2023/05/06 06:16:49;;;;;;;3.30;1.50;;;;;;;11.23;84.32;99980.98;109448;1251;74644;-67
2023/05/06 06:19:17;;;;;;;3.40;1.20;;;;;;;11.05;86.04;99978.48;109388;1251;61509;-67
2023/05/06 06:21:44;;;;;;;1.20;1.00;;;;;;;10.88;86.10;99977.21;109403;1251;59203;-69
2023/05/06 06:24:11;;;;;;;3.20;1.10;;;;;;;10.70;85.53;99972.80;109464;1251;75537;-67
2023/05/06 06:26:38;;;;;;;4.10;1.20;;;;;;;10.45;85.03;99981.73;109522;1251;69970;-67
2023/05/06 06:29:05;;;;;;;2.60;1.20;;;;;;;10.23;86.01;99978.00;109468;1251;74721;-68
2023/05/06 06:31:33;;;;;;;1.60;1.40;;;;;;;10.06;87.91;99983.46;109534;1253;62462;-66
2023/05/06 06:34:04;;;;;;;1.60;1.20;;;;;;;10.01;89.30;99984.01;109610;1251;62628;-67
2023/05/06 06:36:31;;;;;;;2.10;1.40;;;;;;;10.11;89.29;99990.11;109617;1251;75789;-65
2023/05/06 06:38:58;;;;;;;4.50;2.00;;;;;;;10.22;87.24;99989.79;109571;1251;69131;-62
2023/05/06 06:41:26;;;;;;;4.70;1.20;;;;;;;10.21;87.06;99994.17;109479;1251;74120;-64
2023/05/06 06:43:52;;;;;;;1.90;1.70;;;;;;;10.30;87.95;99988.30;109516;1251;61270;-67
2023/05/06 06:46:24;;;;;;;4.40;1.10;;;;;;;11.04;86.76;99985.30;109478;1251;62294;-67
2023/05/06 06:48:50;;;;;;;2.10;1.40;;;;;;;11.68;80.27;99989.13;109453;1251;76778;-68
2023/05/06 06:51:17;;;;;;;11.80;1.50;;;;;;;12.73;73.38;99982.59;109543;1251;69595;-66
2023/05/06 06:53:47;;;;;;;2.20;1.30;;;;;;;13.65;63.75;99983.94;109554;1251;74970;-68
2023/05/06 06:56:14;;;;;;;1.80;1.00;;;;;;;14.28;56.29;99979.91;109500;1253;60498;-67
2023/05/06 06:58:41;;;;;;;1.70;1.00;;;;;;;15.08;52.14;99970.29;109584;1251;62334;-69
2023/05/06 07:01:08;;;;;;;1.70;1.60;;;;;;;15.93;48.04;99970.41;109555;1251;76988;-66
2023/05/06 07:03:35;;;;;;;1.40;1.30;;;;;;;16.46;45.31;99969.09;109476;1253;66755;-67
2023/05/06 07:06:02;;;;;;;1.90;1.20;;;;;;;17.08;44.15;99961.37;109346;1253;73712;-66
2023/05/06 07:08:29;;;;;;;2.20;1.10;;;;;;;17.99;43.40;99956.52;109427;1253;60301;-68
2023/05/06 07:10:56;;;;;;;4.60;1.10;;;;;;;19.10;41.46;99949.77;109435;1252;61925;-70
2023/05/06 07:13:23;;;;;;;3.10;1.10;;;;;;;19.89;37.06;99951.73;109428;1253;77131;-72
2023/05/06 07:15:50;;;;;;;2.70;0.90;;;;;;;19.85;35.20;99956.48;109513;1253;70019;-68
2023/05/06 07:18:16;;;;;;;0.90;0.80;;;;;;;20.08;33.74;99956.73;109533;1252;73720;-72
2023/05/06 07:20:43;;;;;;;1.20;0.90;;;;;;;20.46;32.27;99954.13;109450;1252;62013;-67
2023/05/06 07:23:10;;;;;;;7.50;1.70;;;;;;;20.26;32.60;99950.52;109426;1252;61817;-71
2023/05/06 07:25:37;;;;;;;1.50;0.90;;;;;;;20.05;32.66;99954.16;109352;1253;77091;-67
2023/05/06 07:28:04;;;;;;;5.30;1.10;;;;;;;20.21;31.89;99960.45;109299;1253;69565;-69
2023/05/06 07:30:31;;;;;;;2.50;0.70;;;;;;;19.46;30.82;99963.14;109397;1253;73234;-71
2023/05/06 07:32:58;;;;;;;5.20;2.00;;;;;;;18.78;32.16;99962.95;109418;1254;62199;-68
2023/05/06 07:35:25;;;;;;;2.00;0.70;;;;;;;19.01;33.00;99955.20;109393;1252;61479;-70
2023/05/06 07:37:52;;;;;;;1.60;1.00;;;;;;;20.12;31.96;99953.52;109555;1253;77216;-69
2023/05/06 07:40:18;;;;;;;1.40;0.80;;;;;;;21.26;30.29;99945.92;109515;1253;69245;-69
2023/05/06 07:42:45;;;;;;;2.10;1.20;;;;;;;22.03;29.32;99953.82;109528;1252;73540;-72
2023/05/06 07:45:13;;;;;;;1.60;0.90;;;;;;;22.59;28.26;99952.86;109465;1253;62667;-74
2023/05/06 07:47:41;;;;;;;2.60;1.20;;;;;;;23.29;26.87;99953.02;109507;1252;62183;-68
2023/05/06 07:50:09;;;;;;;3.10;1.00;;;;;;;23.70;26.13;99953.94;109565;1253;75031;-71
2023/05/06 07:52:36;;;;;;;1.20;0.90;;;;;;;24.02;24.95;99952.38;109529;1253;67620;-71
2023/05/06 07:55:03;;;;;;;5.00;0.80;;;;;;;24.15;24.06;99960.13;109515;1253;74973;-70
2023/05/06 07:57:30;;;;;;;2.00;0.70;;;;;;;24.44;23.57;99954.98;109576;1252;63023;-70
2023/05/06 07:59:57;;;;;;;7.30;1.40;;;;;;;24.67;23.68;99954.30;109498;1253;62109;-70
2023/05/06 08:02:24;;;;;;;1.60;0.80;;;;;;;25.00;23.18;99946.63;109465;1256;75122;-71
2023/05/06 08:04:51;;;;;;;3.90;0.80;;;;;;;25.19;22.43;99947.25;109484;1252;70003;-69
2023/05/06 08:07:18;;;;;;;3.90;1.00;;;;;;;25.32;22.15;99946.52;109578;1252;74653;-70
2023/05/06 08:09:45;;;;;;;2.90;0.90;;;;;;;25.48;21.97;99952.89;109486;1253;61576;-74
2023/05/06 08:12:12;;;;;;;2.00;0.60;;;;;;;25.41;21.35;99953.50;109543;1253;61138;-71
2023/05/06 08:14:39;;;;;;;1.40;0.80;;;;;;;25.38;22.57;99950.58;109376;1254;76589;-69
2023/05/06 08:17:06;;;;;;;3.40;0.70;;;;;;;25.52;22.16;99949.55;109501;1253;66415;-70
2023/05/06 08:19:33;;;;;;;5.40;0.70;;;;;;;25.46;21.70;99948.70;109508;1252;74332;-71
2023/05/06 08:22:00;;;;;;;1.70;1.00;;;;;;;25.55;21.12;99946.75;109518;1253;60267;-68
2023/05/06 08:24:27;;;;;;;1.70;1.60;;;;;;;25.43;20.98;99942.73;109517;1252;61233;-71
2023/05/06 08:26:54;;;;;;;4.30;1.00;;;;;;;25.39;21.08;99941.20;109523;1252;76976;-70
2023/05/06 08:29:20;;;;;;;1.80;1.00;;;;;;;25.83;21.29;99950.67;109469;1252;69658;-69
2023/05/06 08:31:47;;;;;;;1.00;0.90;;;;;;;25.90;20.41;99953.36;109529;1253;74697;-69
2023/05/06 08:34:17;;;;;;;1.70;0.80;;;;;;;25.52;20.29;99955.09;109485;1253;62185;-72
2023/05/06 08:36:44;;;;;;;2.70;1.10;;;;;;;24.85;20.52;99951.25;109457;1252;61689;-70
2023/05/06 08:39:13;;;;;;;1.20;0.90;;;;;;;24.44;21.31;99950.27;109508;1252;75621;-71
2023/05/06 08:41:40;;;;;;;2.40;1.20;;;;;;;24.50;21.34;99950.63;109517;1253;70361;-73
2023/05/06 08:44:07;;;;;;;1.30;0.90;;;;;;;24.53;21.33;99945.00;109517;1253;73489;-71
2023/05/06 08:46:34;;;;;;;0.90;0.90;;;;;;;24.72;21.33;99936.24;109449;1253;61029;-71
2023/05/06 08:49:01;;;;;;;1.30;0.80;;;;;;;25.18;21.34;99937.48;109308;1252;62594;-71
2023/05/06 08:51:29;;;;;;;3.00;1.00;;;;;;;25.50;20.79;99933.95;109511;1252;75506;-74
2023/05/06 08:53:55;;;;;;;2.50;0.90;;;;;;;25.65;20.36;99933.19;109425;1252;69106;-71
2023/05/06 08:56:23;;;;;;;3.00;0.90;;;;;;;25.67;20.43;99924.23;109335;1252;74195;-74
2023/05/06 08:58:50;;;;;;;2.30;1.10;;;;;;;26.09;20.41;99920.08;109448;1254;60939;-75
2023/05/06 09:01:17;;;;;;;1.50;0.80;;;;;;;26.69;20.46;99917.83;109484;1253;61199;-70
2023/05/06 09:03:44;;;;;;;10.10;1.50;;;;;;;27.07;20.13;99922.89;109462;1254;76531;-75
2023/05/06 09:06:12;;;;;;;4.50;0.90;;;;;;;27.08;19.96;99919.06;109396;1252;68618;-74
2023/05/06 09:08:39;;;;;;;1.50;0.90;;;;;;;27.05;19.64;99917.48;109540;1253;74215;-74
2023/05/06 09:11:23;;;;;;;2.70;0.90;;;;;;;27.00;19.57;99922.91;109519;1252;60764;-71
2023/05/06 09:13:50;;;;;;;1.00;0.90;;;;;;;26.65;20.03;99922.16;109474;1252;62208;-67
2023/05/06 09:16:27;;;;;;;1.90;1.00;;;;;;;27.14;19.92;99918.54;109407;1252;223909;-67
2023/05/06 09:18:55;;;;;;;1.40;0.80;;;;;;;27.88;19.42;99916.86;109489;1253;70391;-68
2023/05/06 09:21:28;;;;;;;1.00;0.90;;;;;;;28.40;18.55;99911.98;109489;1252;74553;-68
2023/05/06 09:23:55;;;;;;;3.40;1.00;;;;;;;28.79;18.35;99910.89;109450;1253;62496;-68
2023/05/06 09:26:22;;;;;;;0.90;0.90;;;;;;;28.95;17.91;99915.93;109331;1253;61159;-70
2023/05/06 09:28:49;;;;;;;1.70;1.10;;;;;;;28.66;17.66;99911.96;109382;1253;77169;-67
2023/05/06 09:31:16;;;;;;;3.30;1.10;;;;;;;28.48;17.93;99910.66;109532;1253;70115;-68
2023/05/06 09:33:43;;;;;;;1.00;1.00;;;;;;;28.33;19.77;99908.29;109439;1252;74083;-70
2023/05/06 09:36:12;;;;;;;1.50;1.00;;;;;;;28.41;18.25;99911.29;109422;1254;62917;-70
2023/05/06 09:38:42;;;;;;;2.20;0.80;;;;;;;28.62;17.92;99910.27;109294;1252;62331;-76
2023/05/06 09:41:10;;;;;;;0.80;0.80;;;;;;;28.99;17.80;99900.67;109507;1252;76662;-66
2023/05/06 09:43:40;;;;;;;1.20;1.10;;;;;;;29.24;17.45;99903.16;109504;1252;70146;-68
2023/05/06 09:46:07;;;;;;;1.20;1.10;;;;;;;29.52;17.32;99903.71;109345;1256;73405;-68
2023/05/06 09:48:34;;;;;;;4.50;1.10;;;;;;;29.90;17.06;99898.80;109471;1252;59904;-70
2023/05/06 09:51:02;;;;;;;2.40;1.10;;;;;;;30.30;16.82;99894.45;109570;1252;61467;-67
2023/05/06 09:53:29;;;;;;;3.80;1.60;;;;;;;30.51;16.55;99892.70;109226;1253;76800;-66
2023/05/06 09:55:57;;;;;;;1.80;1.30;;;;;;;30.63;16.57;99888.40;109377;1253;69427;-68
2023/05/06 09:58:24;;;;;;;1.90;1.20;;;;;;;31.08;16.46;99882.00;109544;1253;73995;-68
2023/05/06 10:00:50;;;;;;;1.30;0.90;;;;;;;31.36;16.05;99877.93;109448;1252;62760;-67
2023/05/06 10:03:17;;;;;;;2.30;1.20;;;;;;;31.35;15.79;99873.16;109519;1252;62103;-75
2023/05/06 10:05:44;;;;;;;1.60;0.80;;;;;;;31.57;15.84;99870.65;109530;1252;75971;-70
2023/05/06 10:08:13;;;;;;;6.00;1.50;;;;;;;31.74;15.87;99869.56;109491;1252;66604;-71
2023/05/06 10:10:40;;;;;;;1.90;1.20;;;;;;;31.70;15.50;99870.98;109388;1252;73476;-69
2023/05/06 10:13:07;;;;;;;2.30;1.30;;;;;;;31.14;15.62;99871.96;109418;1252;62564;-68
2023/05/06 10:15:34;;;;;;;2.40;1.20;;;;;;;30.41;16.35;99868.43;109542;1253;61053;-75
2023/05/06 10:18:01;;;;;;;2.70;1.00;;;;;;;29.70;16.68;99869.64;109494;1252;73711;-74
2023/05/06 10:20:28;;;;;;;2.00;1.20;;;;;;;28.41;17.28;99864.20;109397;1253;70032;-77
2023/05/06 10:23:43;;;;;;;2.80;1.30;;;;;;;26.95;18.47;99866.41;109367;1253;72008;-81
2023/05/06 10:26:10;;;;;;;6.60;1.30;;;;;;;25.55;19.82;99869.05;109332;1254;61984;-76
2023/05/06 10:28:41;;;;;;;1.90;1.30;;;;;;;24.54;20.77;99864.25;109480;1252;60362;-74
2023/05/06 10:31:11;;;;;;;3.30;1.50;;;;;;;23.46;21.79;99863.42;109526;1253;75869;-74
2023/05/06 10:33:44;;;;;;;2.20;1.20;;;;;;;22.49;23.04;99864.71;109479;1252;66745;-75
2023/05/06 10:36:19;;;;;;;4.60;1.10;;;;;;;21.64;24.30;99868.96;109456;1253;74928;-76
2023/05/06 10:38:53;;;;;;;2.50;1.30;;;;;;;21.01;24.77;99863.70;109362;1252;62844;-76
2023/05/06 10:41:21;;;;;;;1.40;1.00;;;;;;;20.65;25.26;99858.58;109580;1254;61623;-76
2023/05/06 10:43:55;;;;;;;3.00;1.40;;;;;;;20.29;25.59;99856.63;109494;1253;75473;-73
2023/05/06 10:46:23;;;;;;;4.60;1.20;;;;;;;19.98;26.00;99852.98;109365;1252;69362;-73
2023/05/06 10:49:03;;;;;;;1.30;1.20;;;;;;;19.75;26.38;99855.98;109464;1254;73850;-76
2023/05/06 10:51:39;;;;;;;1.90;1.10;;;;;;;19.53;26.44;99854.66;109462;1252;62187;-76
2023/05/06 10:54:18;;;;;;;1.40;1.20;;;;;;;19.35;26.54;99848.46;109493;1253;62646;-75
2023/05/06 10:56:48;;;;;;;1.60;1.20;;;;;;;19.18;27.11;99848.88;109480;1253;76573;-77
2023/05/06 10:59:20;;;;;;;1.60;1.30;;;;;;;19.01;27.57;99853.46;109503;1253;70080;-76
2023/05/06 11:01:54;;;;;;;2.10;1.30;;;;;;;18.76;27.96;99851.02;109490;1252;72218;-79
2023/05/06 11:04:20;;;;;;;2.30;1.40;;;;;;;18.51;28.28;99847.61;109434;1252;62339;-78
2023/05/06 11:06:48;;;;;;;1.60;1.40;;;;;;;18.32;28.59;99853.25;109421;1254;60291;-78
2023/05/06 11:09:22;;;;;;;3.70;1.20;;;;;;;18.15;28.88;99846.27;109394;1253;76516;-75
2023/05/06 11:12:02;;;;;;;1.40;1.20;;;;;;;18.04;29.20;99847.05;109484;1252;66878;-76
2023/05/06 11:14:36;;;;;;;2.80;1.30;;;;;;;17.97;29.55;99849.54;109416;1253;74995;-77
2023/05/06 11:17:04;;;;;;;1.60;1.00;;;;;;;17.92;29.76;99846.10;109495;1254;62690;-76
2023/05/06 11:19:32;;;;;;;7.80;2.00;;;;;;;17.86;29.76;99848.17;109563;1252;61247;-75
2023/05/06 11:22:00;;;;;;;1.20;0.90;;;;;;;17.79;29.91;99855.84;109444;1254;76133;-72
2023/05/06 11:24:28;;;;;;;1.90;1.30;;;;;;;17.58;29.88;99862.73;109542;1252;69548;-72
2023/05/06 11:26:57;;;;;;;9.30;2.40;;;;;;;17.26;30.27;99852.99;109585;1252;74961;-74
2023/05/06 11:29:24;;;;;;;2.90;1.10;;;;;;;17.05;30.55;99855.27;109382;1252;61150;-71